Time;durP1;ratioP1;P1;durP2;ratioP2;P2;SDS_P1;SDS_P2;PMS_P1;PMS_P2;Temp;Humidity;BMP_temperature;BMP_pressure;BME280_temperature;BME280_humidity;BME280_pressure;Samples;Min_cycle;Max_cycle;Signal;HPM_P1;HPM_P2
2022/01/01 00:02:23;;;;;;;68.10;51.80;;;19.40;72.50;;;;;;4986730;27;91953;-67
2022/01/01 00:04:49;;;;;;;68.53;51.65;;;19.40;72.50;;;;;;4991159;27;90320;-66
2022/01/01 00:07:16;;;;;;;68.28;51.45;;;19.40;72.60;;;;;;4994703;27;91228;-67
2022/01/01 00:09:43;;;;;;;70.95;51.55;;;19.40;72.50;;;;;;5004450;27;90538;-67
2022/01/01 00:12:10;;;;;;;69.07;51.50;;;19.40;72.60;;;;;;5011549;27;90037;-67
2022/01/01 00:14:36;;;;;;;68.00;51.60;;;19.40;72.50;;;;;;5012622;27;90730;-67
2022/01/01 00:17:02;;;;;;;67.82;51.55;;;19.40;72.50;;;;;;5009156;27;90258;-67
2022/01/01 00:19:27;;;;;;;67.97;51.40;;;19.30;72.60;;;;;;5007765;27;89285;-68
2022/01/01 00:21:53;;;;;;;68.03;51.42;;;19.40;72.60;;;;;;5011394;27;94902;-68
2022/01/01 00:24:19;;;;;;;70.57;51.35;;;19.30;73.40;;;;;;4977211;28;90688;-66
2022/01/01 00:26:45;;;;;;;67.82;51.42;;;19.30;72.60;;;;;;4985024;27;92834;-68
2022/01/01 00:29:11;;;;;;;65.90;50.88;;;19.30;72.60;;;;;;5006663;27;91231;-68
2022/01/01 00:31:36;;;;;;;70.75;51.65;;;19.30;72.60;;;;;;5005129;27;90074;-68
2022/01/01 00:34:02;;;;;;;67.70;51.50;;;19.30;72.60;;;;;;4987197;28;90005;-69
2022/01/01 00:36:28;;;;;;;69.95;51.67;;;19.30;72.60;;;;;;5001020;27;90540;-71
2022/01/01 00:38:54;;;;;;;69.57;51.45;;;19.30;72.70;;;;;;4995966;28;89583;-68
2022/01/01 00:41:21;;;;;;;66.85;51.50;;;19.20;72.80;;;;;;5011555;27;90830;-67
2022/01/01 00:43:47;;;;;;;67.88;51.50;;;19.20;72.80;;;;;;4990219;27;90059;-68
2022/01/01 00:46:12;;;;;;;65.65;51.20;;;19.20;72.80;;;;;;5014073;27;90072;-68
2022/01/01 00:48:38;;;;;;;66.97;50.75;;;19.20;72.80;;;;;;5003757;27;89934;-68
2022/01/01 00:51:04;;;;;;;66.32;51.15;;;19.20;72.90;;;;;;5010430;27;92278;-68
2022/01/01 00:53:30;;;;;;;67.03;51.53;;;19.20;72.90;;;;;;5009968;27;91736;-67
2022/01/01 00:55:55;;;;;;;68.20;51.42;;;19.10;73.00;;;;;;5007983;27;92084;-67
2022/01/01 00:58:21;;;;;;;67.82;51.40;;;19.20;73.00;;;;;;5015385;27;91090;-69
2022/01/01 01:00:48;;;;;;;67.57;51.25;;;19.20;73.10;;;;;;5013468;27;91117;-69
2022/01/01 01:03:15;;;;;;;66.85;51.50;;;19.20;73.10;;;;;;5017466;27;89907;-69
2022/01/01 01:05:43;;;;;;;68.50;51.05;;;19.20;73.10;;;;;;5003149;27;89793;-69
2022/01/01 01:08:11;;;;;;;67.35;50.97;;;19.10;73.10;;;;;;5010834;27;90198;-68
2022/01/01 01:10:38;;;;;;;68.05;51.00;;;19.10;73.20;;;;;;5011153;27;95957;-68
2022/01/01 01:13:04;;;;;;;67.55;51.13;;;19.10;73.10;;;;;;5007617;27;90362;-68
2022/01/01 01:15:32;;;;;;;67.65;51.05;;;19.10;73.10;;;;;;5017537;27;91126;-65
2022/01/01 01:17:58;;;;;;;68.72;51.47;;;19.10;73.10;;;;;;5019340;27;91093;-65
2022/01/01 01:20:25;;;;;;;69.80;52.20;;;19.20;74.30;;;;;;5015298;27;89943;-66
2022/01/01 01:22:51;;;;;;;68.25;52.45;;;19.20;75.50;;;;;;5015423;27;90747;-66
2022/01/01 01:25:19;;;;;;;70.65;52.35;;;19.20;76.10;;;;;;5009202;27;91216;-65
2022/01/01 01:27:45;;;;;;;71.82;52.78;;;19.20;76.30;;;;;;4997774;27;90824;-66
2022/01/01 01:30:14;;;;;;;70.90;52.78;;;19.20;76.40;;;;;;5010284;27;90796;-67
2022/01/01 01:32:43;;;;;;;72.53;52.55;;;19.20;76.40;;;;;;4990440;27;89994;-67
2022/01/01 01:35:10;;;;;;;72.13;52.72;;;19.30;76.40;;;;;;5006510;27;90600;-71
2022/01/01 01:37:36;;;;;;;70.82;52.40;;;19.30;76.50;;;;;;5001459;27;90671;-67
2022/01/01 01:40:03;;;;;;;70.85;52.58;;;19.30;76.70;;;;;;5005333;27;91594;-67
2022/01/01 01:42:30;;;;;;;70.28;53.05;;;19.30;76.80;;;;;;5013097;27;90714;-68
2022/01/01 01:44:56;;;;;;;70.30;52.70;;;19.30;76.80;;;;;;5014099;27;90093;-68
2022/01/01 01:47:36;;;;;;;77.50;54.20;;;19.30;76.80;;;;;;5011443;27;90536;-68
2022/01/01 01:50:05;;;;;;;75.80;53.70;;;19.30;76.50;;;;;;5009533;27;89662;-68
2022/01/01 01:52:34;;;;;;;71.88;53.97;;;19.30;76.20;;;;;;4990924;28;90020;-68
2022/01/01 01:55:00;;;;;;;73.90;53.40;;;19.30;76.10;;;;;;4996023;27;90976;-68
2022/01/01 01:57:27;;;;;;;71.32;53.50;;;19.20;75.90;;;;;;5002446;27;89878;-68
2022/01/01 01:59:53;;;;;;;72.55;52.75;;;19.20;75.60;;;;;;5001764;27;98497;-68
2022/01/01 02:02:19;;;;;;;72.28;53.25;;;19.20;75.30;;;;;;5000494;27;90993;-68
2022/01/01 02:05:00;;;;;;;62.72;47.82;;;19.10;75.10;;;;;;1807007;27;10106873;-69
2022/01/01 02:07:27;;;;;;;73.70;53.03;;;19.10;75.10;;;;;;3962400;27;10086267;-68
2022/01/01 02:09:52;;;;;;;72.30;53.10;;;19.10;74.90;;;;;;5015834;27;89460;-68
2022/01/01 02:12:18;;;;;;;72.15;53.22;;;19.10;74.80;;;;;;4997192;27;90171;-67
2022/01/01 02:17:28;;;;;;;69.30;53.03;;;19.00;74.90;;;;;;5001719;27;91761;-68
2022/01/01 02:20:00;;;;;;;72.93;52.92;;;18.90;74.90;;;;;;5005685;27;89584;-68
2022/01/01 02:22:34;;;;;;;69.95;52.63;;;18.90;75.00;;;;;;5015271;27;93341;-68
2022/01/01 02:24:59;;;;;;;69.10;52.63;;;18.80;74.70;;;;;;5006981;27;95645;-68
2022/01/01 02:27:25;;;;;;;69.75;52.42;;;18.80;74.70;;;;;;5011056;27;89941;-68
2022/01/01 02:29:51;;;;;;;72.80;52.55;;;18.80;74.60;;;;;;5014284;27;91006;-67
2022/01/01 02:32:18;;;;;;;70.30;52.53;;;18.80;74.80;;;;;;5017059;27;90226;-68
2022/01/01 02:34:43;;;;;;;68.95;52.13;;;18.80;74.60;;;;;;5015540;27;91348;-68
2022/01/01 02:37:09;;;;;;;72.07;52.75;;;18.70;74.70;;;;;;5016776;27;91785;-68
2022/01/01 02:39:35;;;;;;;70.97;52.58;;;18.70;74.60;;;;;;4991448;28;90518;-68
2022/01/01 02:42:01;;;;;;;69.68;51.90;;;18.70;74.60;;;;;;5015253;27;90570;-68
2022/01/01 02:44:28;;;;;;;70.15;52.17;;;18.60;74.70;;;;;;5013324;27;90532;-68
2022/01/01 02:46:55;;;;;;;72.03;52.38;;;18.60;74.60;;;;;;5014862;27;91971;-68
2022/01/01 02:49:20;;;;;;;69.68;52.30;;;18.60;74.80;;;;;;5016408;27;90252;-68
2022/01/01 02:51:46;;;;;;;68.65;52.22;;;18.60;74.80;;;;;;5010969;27;90368;-68
2022/01/01 02:54:12;;;;;;;71.20;52.40;;;18.50;74.80;;;;;;4989894;28;91961;-68
2022/01/01 02:56:38;;;;;;;67.70;51.92;;;18.50;74.80;;;;;;5000949;27;91887;-65
2022/01/01 02:59:04;;;;;;;68.18;52.33;;;18.50;74.50;;;;;;5011338;27;90946;-65
2022/01/01 03:01:30;;;;;;;68.57;52.45;;;18.50;74.60;;;;;;5006378;27;90189;-65
2022/01/01 03:03:56;;;;;;;70.47;52.75;;;18.50;74.70;;;;;;5014018;27;90085;-65
2022/01/01 03:06:21;;;;;;;69.47;53.38;;;18.50;74.50;;;;;;5016052;27;90181;-65
2022/01/01 03:08:52;;;;;;;69.85;52.78;;;18.40;74.30;;;;;;5007959;27;93681;-65
2022/01/01 03:11:18;;;;;;;70.55;52.70;;;18.40;74.40;;;;;;5011084;27;89539;-65
2022/01/01 03:13:44;;;;;;;68.45;52.75;;;18.40;74.40;;;;;;5014835;27;89508;-65
2022/01/01 03:16:10;;;;;;;69.35;53.70;;;18.40;74.30;;;;;;5004542;27;90325;-65
2022/01/01 03:18:37;;;;;;;70.70;53.53;;;18.40;74.40;;;;;;5013291;27;91731;-65
2022/01/01 03:21:03;;;;;;;69.40;53.72;;;18.40;74.40;;;;;;5016517;27;91591;-65
2022/01/01 03:23:28;;;;;;;69.15;54.15;;;18.30;74.30;;;;;;5013370;27;89996;-66
2022/01/01 03:25:54;;;;;;;71.47;55.63;;;18.30;74.30;;;;;;5007099;27;90169;-66
2022/01/01 03:28:20;;;;;;;71.32;54.85;;;18.30;74.30;;;;;;4985054;27;90271;-66
2022/01/01 03:30:45;;;;;;;69.68;54.10;;;18.30;74.30;;;;;;5013500;27;89918;-65
2022/01/01 03:33:11;;;;;;;69.70;54.40;;;18.30;74.20;;;;;;5008692;27;89824;-65
2022/01/01 03:35:37;;;;;;;72.28;53.58;;;18.30;74.10;;;;;;5003058;27;91086;-65
2022/01/01 03:38:03;;;;;;;72.85;56.17;;;18.30;74.10;;;;;;5011797;27;96299;-65
2022/01/01 03:40:28;;;;;;;73.28;56.63;;;18.30;74.10;;;;;;5011477;27;91971;-66
2022/01/01 03:42:54;;;;;;;72.07;54.60;;;18.20;74.00;;;;;;5011293;27;95983;-66
2022/01/01 03:45:20;;;;;;;70.25;54.03;;;18.30;74.80;;;;;;5011105;27;91085;-65
2022/01/01 03:47:45;;;;;;;72.00;54.78;;;18.20;73.90;;;;;;5014974;27;92638;-65
2022/01/01 03:50:11;;;;;;;70.40;54.55;;;18.20;74.00;;;;;;5010588;27;89938;-65
2022/01/01 03:52:44;;;;;;;69.45;54.00;;;18.20;74.00;;;;;;5007513;27;90691;-65
2022/01/01 03:55:14;;;;;;;72.45;55.15;;;18.20;74.00;;;;;;5012151;27;90372;-65
2022/01/01 03:57:39;;;;;;;71.32;54.78;;;18.20;73.90;;;;;;5011578;27;89836;-65
2022/01/01 04:00:08;;;;;;;70.10;54.22;;;18.20;74.00;;;;;;5018489;27;90623;-65
2022/01/01 04:02:34;;;;;;;70.47;54.75;;;18.20;74.00;;;;;;5017006;27;90311;-65
2022/01/01 04:05:00;;;;;;;71.07;53.70;;;18.20;74.00;;;;;;5014708;27;91145;-65
2022/01/01 04:07:25;;;;;;;71.72;54.72;;;18.20;74.00;;;;;;5011282;27;90620;-65
2022/01/01 04:09:51;;;;;;;70.28;53.45;;;18.20;73.80;;;;;;5008987;27;90729;-65
2022/01/01 04:12:17;;;;;;;69.57;53.97;;;18.10;73.70;;;;;;5013813;27;90902;-66
2022/01/01 04:14:42;;;;;;;68.43;52.75;;;18.20;73.80;;;;;;5008862;27;94122;-65
2022/01/01 04:17:10;;;;;;;70.30;53.33;;;18.10;73.60;;;;;;4989736;28;89893;-65
2022/01/01 04:19:45;;;;;;;70.70;53.97;;;18.10;73.70;;;;;;5008617;27;91127;-65
2022/01/01 04:22:13;;;;;;;69.75;53.75;;;18.10;73.70;;;;;;5007755;27;90943;-66
2022/01/01 04:24:39;;;;;;;68.10;53.13;;;18.10;73.70;;;;;;5010023;27;89281;-65
2022/01/01 04:27:06;;;;;;;69.45;53.80;;;18.10;73.60;;;;;;5012217;27;89835;-65
2022/01/01 04:29:31;;;;;;;70.18;53.92;;;18.10;73.70;;;;;;5012461;27;90325;-65
2022/01/01 04:31:57;;;;;;;73.38;55.13;;;18.10;73.70;;;;;;5012166;27;91550;-65
2022/01/01 04:34:24;;;;;;;70.03;54.33;;;18.10;73.70;;;;;;5017183;27;89762;-65
2022/01/01 04:37:01;;;;;;;68.57;53.50;;;18.10;73.60;;;;;;5014617;27;92327;-66
2022/01/01 04:39:27;;;;;;;67.53;53.63;;;18.10;73.60;;;;;;5006002;27;91078;-65
2022/01/01 04:41:53;;;;;;;69.05;53.53;;;18.10;73.60;;;;;;5009420;27;92088;-65
2022/01/01 04:44:18;;;;;;;69.68;53.53;;;18.10;73.50;;;;;;5020393;27;90576;-64
2022/01/01 04:46:44;;;;;;;71.65;54.60;;;18.10;73.60;;;;;;5016814;27;89659;-66
2022/01/01 04:49:10;;;;;;;69.20;54.28;;;18.10;73.50;;;;;;5010097;27;88914;-65
2022/01/01 04:51:35;;;;;;;69.28;54.72;;;18.10;73.50;;;;;;5015459;27;90898;-65
2022/01/01 04:54:02;;;;;;;68.32;53.30;;;18.10;73.40;;;;;;4993117;27;91156;-65
2022/01/01 04:56:30;;;;;;;68.63;53.75;;;18.10;73.60;;;;;;5020307;27;91264;-65
2022/01/01 04:58:56;;;;;;;71.50;55.22;;;18.00;73.30;;;;;;5015757;27;90974;-64
2022/01/01 05:01:22;;;;;;;70.43;53.78;;;18.00;73.40;;;;;;5017520;27;90770;-65
2022/01/01 05:03:48;;;;;;;70.10;54.45;;;18.00;73.40;;;;;;5014105;27;90123;-65
2022/01/01 05:06:14;;;;;;;68.80;54.13;;;18.00;73.30;;;;;;5017370;27;90746;-65
2022/01/01 05:08:39;;;;;;;72.90;55.65;;;18.00;73.40;;;;;;5011380;27;95716;-66
2022/01/01 05:11:05;;;;;;;71.40;55.17;;;18.00;73.40;;;;;;5014432;27;89684;-65
2022/01/01 05:13:31;;;;;;;70.07;55.08;;;18.00;73.30;;;;;;5013759;27;89446;-66
2022/01/01 05:15:57;;;;;;;69.20;54.10;;;18.00;73.30;;;;;;5018373;27;90079;-65
2022/01/01 05:18:23;;;;;;;71.60;55.63;;;18.00;73.30;;;;;;5015457;27;90709;-65
2022/01/01 05:20:50;;;;;;;69.93;54.63;;;18.00;73.30;;;;;;4980282;27;92048;-65
2022/01/01 05:23:15;;;;;;;73.18;55.20;;;18.00;73.40;;;;;;5012971;27;96088;-65
2022/01/01 05:25:41;;;;;;;70.88;54.80;;;17.90;73.30;;;;;;5009430;27;90167;-65
2022/01/01 05:28:07;;;;;;;72.15;54.92;;;17.90;73.40;;;;;;5016016;27;90885;-65
2022/01/01 05:30:33;;;;;;;71.78;55.03;;;17.90;73.30;;;;;;5016399;27;90528;-65
2022/01/01 05:33:02;;;;;;;71.25;55.22;;;17.90;73.30;;;;;;5004737;27;89507;-65
2022/01/01 05:35:28;;;;;;;69.85;54.30;;;17.90;73.20;;;;;;5005471;27;91487;-65
2022/01/01 05:37:54;;;;;;;69.57;54.40;;;17.90;73.20;;;;;;5012901;27;89399;-66
2022/01/01 05:40:20;;;;;;;71.05;54.78;;;17.90;74.00;;;;;;5012115;27;89965;-65
2022/01/01 05:42:45;;;;;;;70.45;54.72;;;17.90;73.20;;;;;;5016923;27;89556;-65
2022/01/01 05:45:11;;;;;;;69.57;53.85;;;17.90;73.20;;;;;;5005934;27;90765;-65
2022/01/01 05:47:37;;;;;;;69.10;54.28;;;17.90;73.30;;;;;;5015825;27;89980;-65
2022/01/01 05:50:04;;;;;;;70.47;54.85;;;17.90;73.60;;;;;;5013005;27;89921;-65
2022/01/01 05:52:29;;;;;;;70.80;55.28;;;18.00;73.50;;;;;;5014385;27;90056;-65
2022/01/01 05:54:55;;;;;;;70.57;54.70;;;18.00;73.40;;;;;;5010676;27;90633;-65
2022/01/01 05:57:21;;;;;;;68.75;53.88;;;18.10;73.40;;;;;;5011988;27;89989;-65
2022/01/01 05:59:46;;;;;;;68.07;53.22;;;18.20;73.10;;;;;;5008660;27;94072;-65
2022/01/01 06:02:12;;;;;;;68.35;52.47;;;18.30;73.20;;;;;;5015704;27;89402;-65
2022/01/01 06:04:38;;;;;;;69.18;53.03;;;18.30;72.80;;;;;;5018453;27;90580;-65
2022/01/01 06:07:04;;;;;;;67.82;53.13;;;18.40;72.70;;;;;;5010999;27;94428;-65
2022/01/01 06:09:30;;;;;;;69.43;54.15;;;18.60;72.40;;;;;;5011703;27;91477;-65
2022/01/01 06:11:56;;;;;;;70.07;54.40;;;18.60;72.10;;;;;;5010878;27;90006;-65
2022/01/01 06:14:21;;;;;;;68.07;53.28;;;18.70;71.90;;;;;;5009895;27;90061;-66
2022/01/01 06:16:48;;;;;;;70.75;54.13;;;18.70;71.60;;;;;;5011268;27;91748;-65
2022/01/01 06:19:14;;;;;;;69.05;54.03;;;18.80;71.30;;;;;;5006570;27;90313;-65
2022/01/01 06:21:40;;;;;;;70.07;54.30;;;18.90;71.40;;;;;;5016129;27;89574;-65
2022/01/01 06:24:06;;;;;;;69.07;53.78;;;18.90;71.10;;;;;;5010390;27;91753;-66
2022/01/01 06:26:32;;;;;;;67.70;52.47;;;18.90;71.00;;;;;;5000841;27;90087;-65
2022/01/01 06:28:58;;;;;;;69.50;54.58;;;19.00;70.80;;;;;;5009069;27;89686;-65
2022/01/01 06:31:23;;;;;;;68.32;53.70;;;19.00;70.80;;;;;;5012941;27;89506;-65
2022/01/01 06:33:49;;;;;;;69.93;53.25;;;19.00;70.60;;;;;;5013203;27;92548;-65
2022/01/01 06:36:15;;;;;;;67.82;53.20;;;19.00;70.40;;;;;;5003780;27;90148;-65
2022/01/01 06:38:44;;;;;;;68.78;53.45;;;19.10;70.30;;;;;;5010418;27;90159;-66
2022/01/01 06:41:10;;;;;;;69.47;54.25;;;19.10;70.20;;;;;;5011030;27;90248;-65
2022/01/01 06:43:36;;;;;;;70.18;54.10;;;19.10;70.30;;;;;;5016229;27;90032;-65
2022/01/01 06:46:02;;;;;;;69.47;53.85;;;19.20;70.20;;;;;;5015323;27;90774;-65
2022/01/01 06:48:28;;;;;;;68.65;53.30;;;19.20;69.90;;;;;;5014712;27;89962;-65
2022/01/01 06:50:54;;;;;;;68.20;53.58;;;19.20;69.90;;;;;;5017063;27;88725;-65
2022/01/01 06:53:20;;;;;;;69.07;53.38;;;19.20;69.90;;;;;;5011115;27;90112;-65
2022/01/01 06:55:46;;;;;;;68.50;53.45;;;19.20;69.80;;;;;;5011927;27;90590;-66
2022/01/01 06:58:11;;;;;;;69.57;54.15;;;19.20;69.60;;;;;;5015060;27;90813;-65
2022/01/01 07:00:37;;;;;;;69.88;53.92;;;19.20;69.70;;;;;;5000892;27;89721;-66
2022/01/01 07:03:03;;;;;;;68.18;53.67;;;19.20;69.60;;;;;;5014653;27;95097;-66
2022/01/01 07:05:29;;;;;;;69.38;53.33;;;19.20;69.60;;;;;;5016914;27;91102;-66
2022/01/01 07:07:55;;;;;;;69.10;54.13;;;19.20;69.60;;;;;;5015685;27;89818;-66
2022/01/01 07:10:21;;;;;;;69.60;53.67;;;19.20;69.40;;;;;;5009340;27;91369;-68
2022/01/01 07:12:46;;;;;;;68.57;53.63;;;19.20;69.40;;;;;;5010950;27;96447;-67
2022/01/01 07:15:15;;;;;;;69.03;53.30;;;19.20;69.50;;;;;;5012238;27;89109;-66
2022/01/01 07:17:41;;;;;;;68.85;53.45;;;19.10;69.40;;;;;;5012171;27;91467;-66
2022/01/01 07:20:07;;;;;;;68.80;52.85;;;19.10;69.30;;;;;;5009553;27;95934;-66
2022/01/01 07:22:39;;;;;;;68.97;53.50;;;19.10;69.40;;;;;;5011912;27;91446;-67
2022/01/01 07:25:06;;;;;;;67.90;52.78;;;19.10;69.50;;;;;;5015274;27;90443;-66
2022/01/01 07:27:32;;;;;;;69.05;53.88;;;19.10;69.50;;;;;;5009647;27;93848;-66
2022/01/01 07:29:57;;;;;;;68.05;52.92;;;19.10;69.50;;;;;;5003091;27;90463;-66
2022/01/01 07:32:24;;;;;;;71.28;54.22;;;19.10;69.50;;;;;;5005331;27;94027;-65
2022/01/01 07:34:50;;;;;;;67.00;52.55;;;19.10;69.50;;;;;;4997387;27;91802;-66
2022/01/01 07:37:15;;;;;;;67.47;53.45;;;19.00;69.60;;;;;;5016578;27;90135;-65
2022/01/01 07:39:41;;;;;;;70.15;53.63;;;19.10;69.60;;;;;;5009401;27;89369;-66
2022/01/01 07:42:07;;;;;;;68.72;53.30;;;19.00;69.60;;;;;;5015516;27;91169;-66
2022/01/01 07:44:32;;;;;;;69.13;53.78;;;19.00;69.50;;;;;;5014760;27;90440;-66
2022/01/01 07:46:58;;;;;;;68.57;52.95;;;19.00;69.60;;;;;;5014541;27;94083;-64
2022/01/01 07:49:24;;;;;;;68.68;53.70;;;19.00;69.60;;;;;;4997799;28;94531;-67
2022/01/01 07:51:49;;;;;;;67.43;53.22;;;19.00;69.70;;;;;;5011353;27;90466;-67
2022/01/01 07:54:15;;;;;;;67.32;52.30;;;18.90;69.60;;;;;;5008241;27;90975;-67
2022/01/01 07:56:41;;;;;;;71.18;54.80;;;18.90;69.80;;;;;;5007941;27;90329;-67
2022/01/01 07:59:06;;;;;;;70.45;54.45;;;18.90;69.70;;;;;;5014382;27;89944;-67
2022/01/01 08:01:32;;;;;;;69.05;53.95;;;18.90;69.90;;;;;;5005818;27;91604;-67
2022/01/01 08:04:01;;;;;;;69.32;53.75;;;18.80;70.00;;;;;;5001989;27;94302;-68
2022/01/01 08:06:29;;;;;;;68.13;53.33;;;18.80;69.90;;;;;;5010791;27;89937;-68
2022/01/01 08:08:55;;;;;;;67.88;53.33;;;18.80;70.70;;;;;;4986376;27;93607;-67
2022/01/01 08:11:20;;;;;;;68.68;52.83;;;18.80;70.70;;;;;;5007675;27;97644;-67
2022/01/01 08:13:46;;;;;;;68.18;53.20;;;18.80;70.20;;;;;;5014540;27;89518;-67
2022/01/01 08:16:12;;;;;;;67.70;53.28;;;18.80;70.00;;;;;;5016306;27;90585;-67
2022/01/01 08:18:37;;;;;;;66.85;52.95;;;18.70;70.10;;;;;;5014245;27;90892;-67
2022/01/01 08:21:03;;;;;;;68.10;53.30;;;18.70;70.10;;;;;;5008740;27;90389;-67
2022/01/01 08:23:28;;;;;;;67.30;53.00;;;18.70;70.20;;;;;;5011250;27;95265;-67
2022/01/01 08:25:56;;;;;;;66.20;52.65;;;18.70;70.30;;;;;;4996268;27;90331;-67
2022/01/01 08:28:21;;;;;;;66.90;52.70;;;18.70;70.30;;;;;;5008084;27;91079;-67
2022/01/01 08:30:47;;;;;;;68.20;52.63;;;18.70;70.30;;;;;;5002789;27;92126;-67
2022/01/01 08:33:13;;;;;;;69.70;53.00;;;18.70;70.30;;;;;;4988902;27;91349;-68
2022/01/01 08:35:38;;;;;;;67.28;52.80;;;18.70;70.50;;;;;;5004516;27;91586;-67
2022/01/01 08:38:04;;;;;;;68.10;52.78;;;18.60;70.40;;;;;;5020080;27;90256;-67
2022/01/01 08:40:31;;;;;;;68.25;52.70;;;18.60;70.40;;;;;;5013881;27;90415;-67
2022/01/01 08:42:57;;;;;;;65.65;51.63;;;18.60;70.50;;;;;;5009351;27;94502;-67
2022/01/01 08:45:23;;;;;;;65.90;52.40;;;18.60;70.40;;;;;;5013947;27;90364;-67
2022/01/01 08:47:49;;;;;;;67.50;52.30;;;18.60;70.50;;;;;;5003484;27;90422;-67
2022/01/01 08:50:15;;;;;;;66.10;52.30;;;18.60;70.50;;;;;;5009903;27;91163;-67
2022/01/01 08:52:41;;;;;;;66.70;52.50;;;18.60;70.60;;;;;;5021361;27;89828;-67
2022/01/01 08:55:07;;;;;;;66.30;52.13;;;18.60;70.60;;;;;;5017197;27;89566;-67
2022/01/01 08:57:34;;;;;;;67.85;52.33;;;18.60;70.60;;;;;;5014854;27;89693;-67
2022/01/01 09:00:01;;;;;;;65.47;51.85;;;18.50;70.40;;;;;;5013477;27;91396;-67
2022/01/01 09:02:27;;;;;;;67.50;52.47;;;18.50;70.70;;;;;;5015524;27;90809;-68
2022/01/01 09:04:52;;;;;;;67.95;52.60;;;18.50;70.60;;;;;;5019078;27;90623;-67
2022/01/01 09:07:19;;;;;;;68.38;52.45;;;18.50;70.50;;;;;;5016776;27;89859;-68
2022/01/01 09:09:44;;;;;;;67.50;52.45;;;18.50;71.40;;;;;;5014017;27;89525;-67
2022/01/01 09:12:11;;;;;;;65.95;52.30;;;18.50;70.60;;;;;;5012430;27;91558;-67
2022/01/01 09:14:37;;;;;;;69.65;52.40;;;18.50;70.50;;;;;;5015740;27;90727;-67
2022/01/01 09:17:05;;;;;;;66.32;51.85;;;18.50;70.60;;;;;;5016460;27;90257;-67
2022/01/01 09:19:31;;;;;;;65.95;52.20;;;18.50;70.60;;;;;;5019882;27;90649;-67
2022/01/01 09:21:56;;;;;;;66.30;51.85;;;18.50;70.60;;;;;;5020366;27;90273;-67
2022/01/01 09:24:22;;;;;;;65.38;51.97;;;18.50;70.60;;;;;;5010868;27;90986;-67
2022/01/01 09:26:48;;;;;;;66.28;52.17;;;18.50;70.80;;;;;;5013211;27;90457;-67
2022/01/01 09:29:13;;;;;;;66.15;51.80;;;18.50;70.60;;;;;;5001272;27;91391;-67
2022/01/01 09:31:41;;;;;;;65.93;52.10;;;18.50;70.60;;;;;;4991435;28;91352;-67
2022/01/01 09:34:07;;;;;;;65.22;51.75;;;18.50;70.60;;;;;;4978796;28;91422;-67
2022/01/01 09:36:33;;;;;;;66.22;52.15;;;18.50;70.60;;;;;;5000213;28;90858;-67
2022/01/01 09:38:59;;;;;;;65.88;52.05;;;18.50;70.50;;;;;;4989910;28;91442;-68
2022/01/01 09:41:25;;;;;;;66.15;51.58;;;18.50;70.50;;;;;;4992132;28;89518;-67
2022/01/01 09:43:54;;;;;;;65.88;52.03;;;18.50;70.60;;;;;;4980735;28;90335;-67
2022/01/01 09:46:20;;;;;;;67.25;52.08;;;18.60;70.40;;;;;;4992634;28;91520;-67
2022/01/01 09:48:46;;;;;;;66.43;51.78;;;18.70;70.40;;;;;;4988976;28;91649;-67
2022/01/01 09:51:13;;;;;;;67.43;51.92;;;18.70;70.00;;;;;;4997019;28;90148;-66
2022/01/01 09:53:39;;;;;;;66.32;52.15;;;18.80;69.80;;;;;;4986313;28;90901;-66
2022/01/01 09:56:05;;;;;;;67.60;52.10;;;18.90;69.50;;;;;;4977313;28;91799;-67
2022/01/01 09:58:35;;;;;;;66.50;51.90;;;19.00;69.40;;;;;;4996292;28;89880;-66
2022/01/01 10:01:03;;;;;;;66.57;52.40;;;19.10;69.20;;;;;;4994445;28;90204;-67
2022/01/01 10:03:44;;;;;;;65.40;51.60;;;19.20;69.00;;;;;;4977791;28;91917;-67
2022/01/01 10:06:14;;;;;;;65.95;51.67;;;19.20;68.60;;;;;;4996899;28;90201;-66
2022/01/01 10:09:03;;;;;;;65.50;51.60;;;19.30;68.40;;;;;;4978585;28;91940;-67
2022/01/01 10:11:30;;;;;;;66.03;51.85;;;19.40;68.10;;;;;;4972146;28;92615;-67
2022/01/01 10:13:56;;;;;;;67.55;52.13;;;19.40;68.00;;;;;;4996158;28;91088;-66
2022/01/01 10:16:23;;;;;;;65.57;51.60;;;19.50;68.10;;;;;;5000853;28;89726;-67
2022/01/01 10:18:51;;;;;;;67.53;51.90;;;19.50;68.00;;;;;;5001958;28;89968;-66
2022/01/01 10:21:22;;;;;;;65.28;51.17;;;19.50;67.80;;;;;;4992004;28;91791;-64
2022/01/01 10:23:52;;;;;;;65.30;51.67;;;19.50;67.60;;;;;;4997169;28;90102;-66
2022/01/01 10:29:13;;;;;;;66.10;51.75;;;19.50;67.60;;;;;;5011833;27;89666;-67
2022/01/01 10:31:51;;;;;;;65.22;51.47;;;19.60;67.70;;;;;;5013604;27;90082;-66
2022/01/01 10:34:18;;;;;;;65.00;51.10;;;19.60;67.70;;;;;;5012769;27;89969;-67
2022/01/01 10:36:47;;;;;;;65.20;51.35;;;19.60;67.60;;;;;;5015555;27;89920;-66
2022/01/01 10:39:15;;;;;;;65.90;51.40;;;19.60;67.70;;;;;;5014653;27;90535;-67
2022/01/01 10:42:03;;;;;;;67.57;51.72;;;19.60;67.60;;;;;;5007146;27;90694;-67
2022/01/01 10:44:34;;;;;;;66.10;51.67;;;19.60;67.50;;;;;;5003734;27;90398;-66
2022/01/01 10:47:13;;;;;;;70.40;51.65;;;19.60;67.60;;;;;;5008554;27;90383;-68
2022/01/01 10:52:21;;;;;;;65.97;51.58;;;19.60;67.50;;;;;;5011997;28;89768;-66
2022/01/01 10:54:57;;;;;;;67.47;51.35;;;19.60;67.80;;;;;;5006932;27;90221;-67
2022/01/01 10:57:24;;;;;;;67.18;51.42;;;19.70;67.70;;;;;;5002075;27;94720;-68
2022/01/01 10:59:50;;;;;;;67.82;51.53;;;19.70;67.50;;;;;;5012266;27;89846;-68
2022/01/01 11:02:19;;;;;;;68.90;51.90;;;19.70;67.30;;;;;;4994340;27;90250;-63
2022/01/01 11:04:45;;;;;;;66.35;51.78;;;19.70;67.30;;;;;;5012421;27;91524;-66
2022/01/01 11:07:11;;;;;;;67.13;51.53;;;19.70;67.20;;;;;;5001066;27;93291;-66
2022/01/01 11:09:38;;;;;;;68.55;51.55;;;19.80;67.30;;;;;;4982505;28;89731;-66
2022/01/01 11:12:04;;;;;;;73.22;51.95;;;19.80;67.10;;;;;;5011971;27;90214;-66
2022/01/01 11:14:33;;;;;;;67.70;51.90;;;19.80;67.00;;;;;;5008403;27;90874;-66
2022/01/01 11:17:00;;;;;;;68.68;52.17;;;19.80;67.00;;;;;;4986005;27;92114;-65
2022/01/01 11:19:27;;;;;;;69.68;51.95;;;19.80;67.00;;;;;;4995238;28;89658;-68
2022/01/01 11:21:53;;;;;;;68.40;51.58;;;19.90;66.90;;;;;;5012557;27;88801;-68
2022/01/01 11:24:21;;;;;;;67.30;52.15;;;19.80;66.80;;;;;;5000940;27;90694;-67
2022/01/01 11:26:49;;;;;;;67.75;51.63;;;19.90;66.90;;;;;;4995783;27;94510;-67
2022/01/01 11:29:15;;;;;;;70.43;52.55;;;19.80;66.80;;;;;;4987748;27;92466;-66
2022/01/01 11:31:43;;;;;;;70.30;52.72;;;19.90;68.60;;;;;;5004881;27;92461;-68
2022/01/01 11:34:09;;;;;;;71.72;52.80;;;19.90;69.10;;;;;;5012881;27;90870;-67
2022/01/01 11:36:35;;;;;;;71.80;52.70;;;20.00;69.50;;;;;;5011295;27;89879;-67
2022/01/01 11:39:11;;;;;;;70.47;52.65;;;20.00;69.80;;;;;;5004143;27;90538;-67
2022/01/01 11:41:39;;;;;;;71.22;52.95;;;20.00;69.90;;;;;;5007935;27;94950;-68
2022/01/01 11:44:25;;;;;;;73.82;52.53;;;20.10;70.30;;;;;;5003991;27;90293;-69
2022/01/01 11:47:03;;;;;;;72.18;52.67;;;20.10;70.50;;;;;;5013603;27;90071;-69
2022/01/01 11:49:30;;;;;;;73.72;52.90;;;20.10;70.90;;;;;;5016220;27;89995;-68
2022/01/01 11:51:57;;;;;;;75.82;52.78;;;20.10;70.70;;;;;;5014324;27;89723;-68
2022/01/01 11:54:26;;;;;;;71.10;51.72;;;20.10;70.30;;;;;;5010659;27;90621;-68
2022/01/01 11:56:56;;;;;;;79.65;52.75;;;20.10;70.50;;;;;;5004711;27;90171;-68
2022/01/01 11:59:37;;;;;;;75.10;52.35;;;20.10;70.40;;;;;;4978048;27;90520;-68
2022/01/01 12:02:18;;;;;;;69.63;52.90;;;20.10;70.30;;;;;;4999987;27;90196;-68
2022/01/01 12:04:45;;;;;;;74.68;52.03;;;20.10;70.40;;;;;;4995678;28;89821;-70
2022/01/01 12:07:16;;;;;;;73.50;52.47;;;20.10;70.50;;;;;;5003253;27;90712;-72
2022/01/01 12:10:01;;;;;;;71.18;52.38;;;20.00;70.30;;;;;;5011847;27;90493;-68
2022/01/01 12:13:06;;;;;;;72.20;52.33;;;20.10;69.90;;;;;;4957357;27;91617;-69
2022/01/01 12:15:50;;;;;;;74.72;51.97;;;20.00;69.60;;;;;;5001922;27;90366;-66
2022/01/01 12:18:26;;;;;;;70.68;51.90;;;20.00;69.30;;;;;;5005105;27;91156;-67
2022/01/01 12:21:02;;;;;;;72.97;52.13;;;20.00;69.50;;;;;;4954175;27;95501;-70
2022/01/01 12:23:33;;;;;;;68.13;51.95;;;20.00;69.50;;;;;;4994281;27;90188;-68
2022/01/01 12:25:58;;;;;;;70.53;52.30;;;20.00;69.80;;;;;;5010296;27;89898;-68
2022/01/01 12:28:28;;;;;;;74.25;51.50;;;20.00;69.80;;;;;;5007392;27;90150;-65
2022/01/01 12:30:56;;;;;;;71.43;51.83;;;19.90;70.00;;;;;;5008644;27;90191;-66
2022/01/01 12:33:25;;;;;;;68.68;51.95;;;19.90;70.80;;;;;;4979818;28;91125;-69
2022/01/01 12:36:04;;;;;;;70.35;52.05;;;20.00;70.30;;;;;;5007583;27;91069;-68